sensor_id;sensor_type;location;lat;lon;timestamp;pressure;altitude;pressure_sealevel;temperature;humidity
51715;BME280;39115;59.332;18.034;2024-01-30T00:01:48;102282.88;;;3.23;66.49
51715;BME280;39115;59.332;18.034;2024-01-30T00:04:09;102286.34;;;3.24;66.49
51715;BME280;39115;59.332;18.034;2024-01-30T00:06:29;102287.25;;;3.23;66.64
51715;BME280;39115;59.332;18.034;2024-01-30T00:08:50;102297.78;;;3.23;66.68
51715;BME280;39115;59.332;18.034;2024-01-30T00:11:10;102293.47;;;3.22;66.63
51715;BME280;39115;59.332;18.034;2024-01-30T00:13:31;102305.69;;;3.23;66.83
51715;BME280;39115;59.332;18.034;2024-01-30T00:15:51;102297.00;;;3.21;66.83
51715;BME280;39115;59.332;18.034;2024-01-30T00:18:12;102304.84;;;3.22;66.96
51715;BME280;39115;59.332;18.034;2024-01-30T00:20:32;102304.03;;;3.20;66.73
51715;BME280;39115;59.332;18.034;2024-01-30T00:22:52;102313.63;;;3.21;66.87
51715;BME280;39115;59.332;18.034;2024-01-30T00:25:13;102305.81;;;3.20;66.71
51715;BME280;39115;59.332;18.034;2024-01-30T00:27:33;102300.53;;;3.20;66.86
51715;BME280;39115;59.332;18.034;2024-01-30T00:29:54;102303.16;;;3.20;66.87
51715;BME280;39115;59.332;18.034;2024-01-30T00:32:14;102313.69;;;3.20;66.94
51715;BME280;39115;59.332;18.034;2024-01-30T00:34:35;102308.44;;;3.20;66.92
51715;BME280;39115;59.332;18.034;2024-01-30T00:36:55;102300.59;;;3.18;66.77
51715;BME280;39115;59.332;18.034;2024-01-30T00:39:16;102300.59;;;3.18;66.71
51715;BME280;39115;59.332;18.034;2024-01-30T00:41:36;102292.69;;;3.18;66.83
51715;BME280;39115;59.332;18.034;2024-01-30T00:43:57;102291.81;;;3.17;66.77
51715;BME280;39115;59.332;18.034;2024-01-30T00:46:17;102295.38;;;3.16;67.00
51715;BME280;39115;59.332;18.034;2024-01-30T00:48:38;102294.50;;;3.16;66.72
51715;BME280;39115;59.332;18.034;2024-01-30T00:50:58;102298.00;;;3.16;66.58
51715;BME280;39115;59.332;18.034;2024-01-30T00:53:19;102295.38;;;3.16;66.71
51715;BME280;39115;59.332;18.034;2024-01-30T00:55:39;102305.03;;;3.16;66.81
51715;BME280;39115;59.332;18.034;2024-01-30T00:58:00;102298.06;;;3.15;66.84
51715;BME280;39115;59.332;18.034;2024-01-30T01:00:20;102305.94;;;3.15;66.74
51715;BME280;39115;59.332;18.034;2024-01-30T01:02:41;102315.63;;;3.14;66.79
51715;BME280;39115;59.332;18.034;2024-01-30T01:05:02;102309.47;;;3.14;66.68
51715;BME280;39115;59.332;18.034;2024-01-30T01:07:23;102301.59;;;3.14;66.91
51715;BME280;39115;59.332;18.034;2024-01-30T01:09:43;102298.97;;;3.14;66.71
51715;BME280;39115;59.332;18.034;2024-01-30T01:12:04;102305.09;;;3.14;66.69
51715;BME280;39115;59.332;18.034;2024-01-30T01:14:25;102307.72;;;3.14;66.81
51715;BME280;39115;59.332;18.034;2024-01-30T01:16:45;102301.59;;;3.14;66.91
51715;BME280;39115;59.332;18.034;2024-01-30T01:19:06;102306.00;;;3.13;66.62
51715;BME280;39115;59.332;18.034;2024-01-30T01:21:26;102298.09;;;3.13;66.68
51715;BME280;39115;59.332;18.034;2024-01-30T01:23:47;102301.66;;;3.12;66.73
51715;BME280;39115;59.332;18.034;2024-01-30T01:26:08;102305.19;;;3.11;66.82
51715;BME280;39115;59.332;18.034;2024-01-30T01:28:30;102302.56;;;3.11;66.67
51715;BME280;39115;59.332;18.034;2024-01-30T01:30:50;102297.28;;;3.11;66.44
51715;BME280;39115;59.332;18.034;2024-01-30T01:33:11;102305.19;;;3.11;66.69
51715;BME280;39115;59.332;18.034;2024-01-30T01:35:34;102295.50;;;3.12;66.76
51715;BME280;39115;59.332;18.034;2024-01-30T01:37:55;102283.28;;;3.11;66.82
51715;BME280;39115;59.332;18.034;2024-01-30T01:40:15;102288.53;;;3.11;66.60
51715;BME280;39115;59.332;18.034;2024-01-30T01:42:36;102294.72;;;3.10;66.60
51715;BME280;39115;59.332;18.034;2024-01-30T01:44:56;102306.09;;;3.10;66.61
51715;BME280;39115;59.332;18.034;2024-01-30T01:47:17;102315.72;;;3.11;66.78
51715;BME280;39115;59.332;18.034;2024-01-30T01:49:37;102303.47;;;3.10;66.79
51715;BME280;39115;59.332;18.034;2024-01-30T01:51:58;102299.97;;;3.10;66.80
51715;BME280;39115;59.332;18.034;2024-01-30T01:54:19;102288.56;;;3.09;66.68
51715;BME280;39115;59.332;18.034;2024-01-30T01:56:41;102278.03;;;3.09;66.83
51715;BME280;39115;59.332;18.034;2024-01-30T01:59:07;102295.56;;;3.10;66.60
51715;BME280;39115;59.332;18.034;2024-01-30T02:01:28;102305.25;;;3.10;66.94
51715;BME280;39115;59.332;18.034;2024-01-30T02:03:49;102308.78;;;3.09;66.67
51715;BME280;39115;59.332;18.034;2024-01-30T02:06:09;102298.25;;;3.09;66.78
51715;BME280;39115;59.332;18.034;2024-01-30T02:08:30;102308.78;;;3.09;66.81
51715;BME280;39115;59.332;18.034;2024-01-30T02:10:51;102299.97;;;3.10;66.59
51715;BME280;39115;59.332;18.034;2024-01-30T02:13:11;102293.00;;;3.09;66.66
51715;BME280;39115;59.332;18.034;2024-01-30T02:15:31;102292.09;;;3.08;66.61
51715;BME280;39115;59.332;18.034;2024-01-30T02:17:52;102281.59;;;3.08;66.78
51715;BME280;39115;59.332;18.034;2024-01-30T02:20:12;102281.66;;;3.07;66.81
51715;BME280;39115;59.332;18.034;2024-01-30T02:22:34;102287.75;;;3.07;66.90
51715;BME280;39115;59.332;18.034;2024-01-30T02:24:55;102297.38;;;3.08;66.61
51715;BME280;39115;59.332;18.034;2024-01-30T02:27:15;102290.38;;;3.07;66.74
51715;BME280;39115;59.332;18.034;2024-01-30T02:29:36;102292.16;;;3.07;66.85
51715;BME280;39115;59.332;18.034;2024-01-30T02:31:56;102292.16;;;3.07;66.76
51715;BME280;39115;59.332;18.034;2024-01-30T02:34:18;102282.53;;;3.06;66.93
51715;BME280;39115;59.332;18.034;2024-01-30T02:36:42;102287.75;;;3.07;66.83
51715;BME280;39115;59.332;18.034;2024-01-30T02:39:03;102286.91;;;3.07;66.94
51715;BME280;39115;59.332;18.034;2024-01-30T02:41:24;102293.94;;;3.06;66.70
51715;BME280;39115;59.332;18.034;2024-01-30T02:43:44;102286.97;;;3.05;66.89
51715;BME280;39115;59.332;18.034;2024-01-30T02:46:05;102288.72;;;3.05;66.86
51715;BME280;39115;59.332;18.034;2024-01-30T02:48:25;102293.97;;;3.05;66.53
51715;BME280;39115;59.332;18.034;2024-01-30T02:50:46;102293.97;;;3.05;66.64
51715;BME280;39115;59.332;18.034;2024-01-30T02:53:07;102291.34;;;3.05;66.69
51715;BME280;39115;59.332;18.034;2024-01-30T02:55:27;102290.44;;;3.06;66.73
51715;BME280;39115;59.332;18.034;2024-01-30T02:57:48;102289.63;;;3.04;66.49
51715;BME280;39115;59.332;18.034;2024-01-30T03:00:09;102297.50;;;3.05;66.53
51715;BME280;39115;59.332;18.034;2024-01-30T03:02:29;102296.59;;;3.06;66.47
51715;BME280;39115;59.332;18.034;2024-01-30T03:04:50;102290.50;;;3.04;66.90
51715;BME280;39115;59.332;18.034;2024-01-30T03:07:10;102285.25;;;3.04;66.81
51715;BME280;39115;59.332;18.034;2024-01-30T03:09:31;102280.81;;;3.05;66.85
51715;BME280;39115;59.332;18.034;2024-01-30T03:11:51;102292.25;;;3.04;66.94
51715;BME280;39115;59.332;18.034;2024-01-30T03:14:12;102287.00;;;3.04;66.58
51715;BME280;39115;59.332;18.034;2024-01-30T03:16:32;102279.09;;;3.04;66.68
51715;BME280;39115;59.332;18.034;2024-01-30T03:18:53;102288.78;;;3.03;66.83
51715;BME280;39115;59.332;18.034;2024-01-30T03:21:13;102287.03;;;3.02;66.72
51715;BME280;39115;59.332;18.034;2024-01-30T03:23:33;102296.66;;;3.03;66.67
51715;BME280;39115;59.332;18.034;2024-01-30T03:25:54;102287.94;;;3.01;66.54
51715;BME280;39115;59.332;18.034;2024-01-30T03:28:14;102292.31;;;3.02;66.94
51715;BME280;39115;59.332;18.034;2024-01-30T03:30:35;102291.47;;;3.02;66.73
51715;BME280;39115;59.332;18.034;2024-01-30T03:32:55;102287.03;;;3.02;66.79
51715;BME280;39115;59.332;18.034;2024-01-30T03:35:16;102287.94;;;3.01;66.79
51715;BME280;39115;59.332;18.034;2024-01-30T03:37:36;102295.84;;;3.01;66.88
51715;BME280;39115;59.332;18.034;2024-01-30T03:39:57;102307.25;;;3.02;66.70
51715;BME280;39115;59.332;18.034;2024-01-30T03:42:17;102306.38;;;3.01;66.78
51715;BME280;39115;59.332;18.034;2024-01-30T03:44:38;102306.38;;;3.01;66.85
51715;BME280;39115;59.332;18.034;2024-01-30T03:46:58;102303.75;;;3.01;66.76
51715;BME280;39115;59.332;18.034;2024-01-30T03:49:18;102310.78;;;3.00;66.77
51715;BME280;39115;59.332;18.034;2024-01-30T03:51:39;102312.53;;;3.00;66.67
51715;BME280;39115;59.332;18.034;2024-01-30T03:53:59;102304.63;;;3.00;66.77
51715;BME280;39115;59.332;18.034;2024-01-30T03:56:20;102306.38;;;3.01;66.76
51715;BME280;39115;59.332;18.034;2024-01-30T03:58:40;102309.06;;;2.99;66.81
51715;BME280;39115;59.332;18.034;2024-01-30T04:01:01;102302.94;;;2.99;66.58
51715;BME280;39115;59.332;18.034;2024-01-30T04:03:22;102302.00;;;3.00;66.70
51715;BME280;39115;59.332;18.034;2024-01-30T04:05:42;102305.56;;;2.99;66.76
51715;BME280;39115;59.332;18.034;2024-01-30T04:08:03;102308.22;;;2.99;66.75
51715;BME280;39115;59.332;18.034;2024-01-30T04:10:24;102307.31;;;2.98;66.63
51715;BME280;39115;59.332;18.034;2024-01-30T04:12:45;102308.22;;;2.97;66.81
51715;BME280;39115;59.332;18.034;2024-01-30T04:15:05;102312.59;;;2.98;66.68
51715;BME280;39115;59.332;18.034;2024-01-30T04:17:26;102305.59;;;2.97;66.75
51715;BME280;39115;59.332;18.034;2024-01-30T04:19:46;102302.97;;;2.97;66.77
51715;BME280;39115;59.332;18.034;2024-01-30T04:22:07;102303.03;;;2.96;66.79
51715;BME280;39115;59.332;18.034;2024-01-30T04:24:27;102306.50;;;2.96;66.51
51715;BME280;39115;59.332;18.034;2024-01-30T04:26:48;102306.50;;;2.96;66.89
51715;BME280;39115;59.332;18.034;2024-01-30T04:29:08;102309.13;;;2.96;66.78
51715;BME280;39115;59.332;18.034;2024-01-30T04:31:29;102308.28;;;2.96;66.88
51715;BME280;39115;59.332;18.034;2024-01-30T04:33:49;102313.56;;;2.96;66.76
51715;BME280;39115;59.332;18.034;2024-01-30T04:36:09;102304.81;;;2.95;66.72
51715;BME280;39115;59.332;18.034;2024-01-30T04:38:31;102308.28;;;2.96;66.80
51715;BME280;39115;59.332;18.034;2024-01-30T04:40:51;102307.44;;;2.95;66.72
51715;BME280;39115;59.332;18.034;2024-01-30T04:43:12;102301.31;;;2.95;66.86
51715;BME280;39115;59.332;18.034;2024-01-30T04:45:32;102309.19;;;2.95;66.80
51715;BME280;39115;59.332;18.034;2024-01-30T04:47:53;102297.81;;;2.94;66.68
51715;BME280;39115;59.332;18.034;2024-01-30T04:50:13;102306.63;;;2.93;66.70
51715;BME280;39115;59.332;18.034;2024-01-30T04:52:34;102307.47;;;2.94;66.63
51715;BME280;39115;59.332;18.034;2024-01-30T04:54:55;102303.13;;;2.93;66.84
51715;BME280;39115;59.332;18.034;2024-01-30T04:57:15;102297.84;;;2.93;66.71
51715;BME280;39115;59.332;18.034;2024-01-30T04:59:36;102289.97;;;2.93;66.72
51715;BME280;39115;59.332;18.034;2024-01-30T05:01:56;102283.84;;;2.92;66.67
51715;BME280;39115;59.332;18.034;2024-01-30T05:04:17;102286.47;;;2.92;66.76
51715;BME280;39115;59.332;18.034;2024-01-30T05:06:37;102287.38;;;2.91;66.64
51715;BME280;39115;59.332;18.034;2024-01-30T05:08:58;102291.75;;;2.92;66.67
51715;BME280;39115;59.332;18.034;2024-01-30T05:11:18;102290.84;;;2.92;66.78
51715;BME280;39115;59.332;18.034;2024-01-30T05:13:39;102298.75;;;2.92;66.78
51715;BME280;39115;59.332;18.034;2024-01-30T05:16:02;102295.28;;;2.91;66.89
51715;BME280;39115;59.332;18.034;2024-01-30T05:18:23;102295.34;;;2.90;66.67
51715;BME280;39115;59.332;18.034;2024-01-30T05:20:44;102301.44;;;2.90;66.82
51715;BME280;39115;59.332;18.034;2024-01-30T05:23:04;102303.22;;;2.90;66.82
51715;BME280;39115;59.332;18.034;2024-01-30T05:25:24;102301.50;;;2.89;66.78
51715;BME280;39115;59.332;18.034;2024-01-30T05:27:45;102304.97;;;2.89;67.16
51715;BME280;39115;59.332;18.034;2024-01-30T05:30:06;102299.72;;;2.89;66.77
51715;BME280;39115;59.332;18.034;2024-01-30T05:32:28;102304.97;;;2.89;66.64
51715;BME280;39115;59.332;18.034;2024-01-30T05:34:48;102298.00;;;2.88;66.80
51715;BME280;39115;59.332;18.034;2024-01-30T05:37:10;102295.34;;;2.88;66.73
51715;BME280;39115;59.332;18.034;2024-01-30T05:39:34;102305.03;;;2.88;66.91
51715;BME280;39115;59.332;18.034;2024-01-30T05:41:55;102305.88;;;2.88;66.85
51715;BME280;39115;59.332;18.034;2024-01-30T05:44:16;102304.19;;;2.87;66.94
51715;BME280;39115;59.332;18.034;2024-01-30T05:46:36;102299.78;;;2.88;67.00
51715;BME280;39115;59.332;18.034;2024-01-30T05:48:57;102307.66;;;2.88;66.77
51715;BME280;39115;59.332;18.034;2024-01-30T05:51:17;102304.19;;;2.87;66.68
51715;BME280;39115;59.332;18.034;2024-01-30T05:53:38;102311.19;;;2.87;66.66
51715;BME280;39115;59.332;18.034;2024-01-30T05:56:01;102301.56;;;2.87;66.75
51715;BME280;39115;59.332;18.034;2024-01-30T05:58:22;102301.56;;;2.85;66.75
51715;BME280;39115;59.332;18.034;2024-01-30T06:00:42;102306.84;;;2.85;66.75
51715;BME280;39115;59.332;18.034;2024-01-30T06:03:03;102312.09;;;2.85;66.70
51715;BME280;39115;59.332;18.034;2024-01-30T06:05:24;102305.13;;;2.84;66.72
51715;BME280;39115;59.332;18.034;2024-01-30T06:07:44;102301.56;;;2.85;66.61
51715;BME280;39115;59.332;18.034;2024-01-30T06:10:05;102292.00;;;2.83;66.85
51715;BME280;39115;59.332;18.034;2024-01-30T06:12:27;102291.13;;;2.84;66.61
51715;BME280;39115;59.332;18.034;2024-01-30T06:14:48;102296.38;;;2.84;66.84
51715;BME280;39115;59.332;18.034;2024-01-30T06:17:08;102286.75;;;2.83;66.59
51715;BME280;39115;59.332;18.034;2024-01-30T06:19:29;102284.13;;;2.83;66.84
51715;BME280;39115;59.332;18.034;2024-01-30T06:21:49;102280.66;;;2.82;66.80
51715;BME280;39115;59.332;18.034;2024-01-30T06:24:10;102281.50;;;2.83;66.77
51715;BME280;39115;59.332;18.034;2024-01-30T06:26:30;102277.13;;;2.82;66.69
51715;BME280;39115;59.332;18.034;2024-01-30T06:28:51;102285.94;;;2.81;66.75
51715;BME280;39115;59.332;18.034;2024-01-30T06:31:11;102284.19;;;2.81;66.61
51715;BME280;39115;59.332;18.034;2024-01-30T06:33:32;102290.34;;;2.80;66.81
51715;BME280;39115;59.332;18.034;2024-01-30T06:35:52;102286.00;;;2.79;66.63
51715;BME280;39115;59.332;18.034;2024-01-30T06:38:13;102294.75;;;2.80;66.83
51715;BME280;39115;59.332;18.034;2024-01-30T06:40:35;102293.81;;;2.81;66.54
51715;BME280;39115;59.332;18.034;2024-01-30T06:42:56;102293.88;;;2.79;66.74
51715;BME280;39115;59.332;18.034;2024-01-30T06:45:17;102296.50;;;2.79;66.71
51715;BME280;39115;59.332;18.034;2024-01-30T06:47:37;102300.91;;;2.79;66.81
51715;BME280;39115;59.332;18.034;2024-01-30T06:49:58;102290.41;;;2.79;66.73
51715;BME280;39115;59.332;18.034;2024-01-30T06:52:18;102301.78;;;2.79;66.89
51715;BME280;39115;59.332;18.034;2024-01-30T06:54:39;102300.91;;;2.79;66.72
51715;BME280;39115;59.332;18.034;2024-01-30T06:57:00;102306.19;;;2.79;66.82
51715;BME280;39115;59.332;18.034;2024-01-30T06:59:20;102305.34;;;2.77;66.54
51715;BME280;39115;59.332;18.034;2024-01-30T07:01:40;102296.56;;;2.78;66.76
51715;BME280;39115;59.332;18.034;2024-01-30T07:04:01;102293.13;;;2.76;66.84
51715;BME280;39115;59.332;18.034;2024-01-30T07:06:21;102300.94;;;2.77;66.73
51715;BME280;39115;59.332;18.034;2024-01-30T07:08:42;102301.81;;;2.78;66.69
51715;BME280;39115;59.332;18.034;2024-01-30T07:11:03;102297.41;;;2.78;66.82
51715;BME280;39115;59.332;18.034;2024-01-30T07:13:23;102276.56;;;2.72;66.71
51715;BME280;39115;59.332;18.034;2024-01-30T07:15:44;102284.31;;;2.77;66.80
51715;BME280;39115;59.332;18.034;2024-01-30T07:18:05;102273.84;;;2.75;66.72
51715;BME280;39115;59.332;18.034;2024-01-30T07:20:26;102269.44;;;2.76;66.76
51715;BME280;39115;59.332;18.034;2024-01-30T07:22:46;102277.34;;;2.76;66.77
51715;BME280;39115;59.332;18.034;2024-01-30T07:25:08;102268.59;;;2.75;66.68
51715;BME280;39115;59.332;18.034;2024-01-30T07:27:29;102261.59;;;2.74;66.64
51715;BME280;39115;59.332;18.034;2024-01-30T07:29:49;102257.19;;;2.75;66.61
51715;BME280;39115;59.332;18.034;2024-01-30T07:32:10;102264.25;;;2.74;66.68
51715;BME280;39115;59.332;18.034;2024-01-30T07:34:30;102275.66;;;2.73;66.71
51715;BME280;39115;59.332;18.034;2024-01-30T07:36:51;102281.78;;;2.74;66.79
51715;BME280;39115;59.332;18.034;2024-01-30T07:39:11;102280.91;;;2.73;66.83
51715;BME280;39115;59.332;18.034;2024-01-30T07:41:32;102277.41;;;2.73;66.77
51715;BME280;39115;59.332;18.034;2024-01-30T07:43:52;102286.19;;;2.73;66.87
51715;BME280;39115;59.332;18.034;2024-01-30T07:46:13;102284.41;;;2.74;66.83
51715;BME280;39115;59.332;18.034;2024-01-30T07:48:34;102275.72;;;2.72;66.79
51715;BME280;39115;59.332;18.034;2024-01-30T07:50:54;102282.66;;;2.73;66.43
51715;BME280;39115;59.332;18.034;2024-01-30T07:53:15;102279.13;;;2.74;66.88
51715;BME280;39115;59.332;18.034;2024-01-30T07:55:35;102277.41;;;2.73;66.77
51715;BME280;39115;59.332;18.034;2024-01-30T07:57:55;102276.56;;;2.72;66.69
51715;BME280;39115;59.332;18.034;2024-01-30T08:00:16;102270.41;;;2.73;66.75
51715;BME280;39115;59.332;18.034;2024-01-30T08:02:37;102259.94;;;2.72;66.56
51715;BME280;39115;59.332;18.034;2024-01-30T08:04:57;102265.19;;;2.72;66.79
51715;BME280;39115;59.332;18.034;2024-01-30T08:07:18;102266.03;;;2.72;66.75
51715;BME280;39115;59.332;18.034;2024-01-30T08:09:38;102259.13;;;2.69;66.73
51715;BME280;39115;59.332;18.034;2024-01-30T08:11:58;102264.31;;;2.71;66.44
51715;BME280;39115;59.332;18.034;2024-01-30T08:14:19;102266.03;;;2.72;66.77
51715;BME280;39115;59.332;18.034;2024-01-30T08:16:39;102263.47;;;2.71;66.79
51715;BME280;39115;59.332;18.034;2024-01-30T08:19:00;102255.59;;;2.71;66.72
51715;BME280;39115;59.332;18.034;2024-01-30T08:21:21;102249.44;;;2.70;66.76
51715;BME280;39115;59.332;18.034;2024-01-30T08:23:42;102252.06;;;2.70;66.66
51715;BME280;39115;59.332;18.034;2024-01-30T08:26:03;102251.16;;;2.71;66.82
51715;BME280;39115;59.332;18.034;2024-01-30T08:28:23;102248.59;;;2.69;66.84
51715;BME280;39115;59.332;18.034;2024-01-30T08:30:44;102249.44;;;2.70;66.80
51715;BME280;39115;59.332;18.034;2024-01-30T08:33:04;102258.22;;;2.71;66.93
51715;BME280;39115;59.332;18.034;2024-01-30T08:35:25;102252.97;;;2.69;66.73
51715;BME280;39115;59.332;18.034;2024-01-30T08:37:45;102252.97;;;2.69;66.67
51715;BME280;39115;59.332;18.034;2024-01-30T08:40:07;102247.72;;;2.69;66.92
51715;BME280;39115;59.332;18.034;2024-01-30T08:42:28;102251.22;;;2.69;66.71
51715;BME280;39115;59.332;18.034;2024-01-30T08:44:49;102251.22;;;2.69;66.93
51715;BME280;39115;59.332;18.034;2024-01-30T08:47:11;102253.84;;;2.69;66.79
51715;BME280;39115;59.332;18.034;2024-01-30T08:49:32;102256.50;;;2.69;66.76
51715;BME280;39115;59.332;18.034;2024-01-30T08:51:52;102255.59;;;2.69;66.86
51715;BME280;39115;59.332;18.034;2024-01-30T08:54:13;102257.34;;;2.70;66.69
51715;BME280;39115;59.332;18.034;2024-01-30T08:56:33;102254.72;;;2.70;66.80
51715;BME280;39115;59.332;18.034;2024-01-30T08:58:54;102259.97;;;2.70;66.65
51715;BME280;39115;59.332;18.034;2024-01-30T09:01:14;102259.13;;;2.69;66.76
51715;BME280;39115;59.332;18.034;2024-01-30T09:03:35;102248.59;;;2.69;66.76
51715;BME280;39115;59.332;18.034;2024-01-30T09:05:56;102256.50;;;2.69;66.65
51715;BME280;39115;59.332;18.034;2024-01-30T09:08:17;102242.47;;;2.69;66.69
51715;BME280;39115;59.332;18.034;2024-01-30T09:10:37;102245.06;;;2.71;66.82
51715;BME280;39115;59.332;18.034;2024-01-30T09:12:58;102231.09;;;2.68;66.69
51715;BME280;39115;59.332;18.034;2024-01-30T09:15:18;102236.28;;;2.70;66.71
51715;BME280;39115;59.332;18.034;2024-01-30T09:17:39;102233.66;;;2.70;66.73
51715;BME280;39115;59.332;18.034;2024-01-30T09:19:59;102243.34;;;2.69;66.70
51715;BME280;39115;59.332;18.034;2024-01-30T09:22:20;102231.03;;;2.70;66.88
51715;BME280;39115;59.332;18.034;2024-01-30T09:24:40;102229.28;;;2.71;66.64
51715;BME280;39115;59.332;18.034;2024-01-30T09:27:01;102231.91;;;2.71;66.61
51715;BME280;39115;59.332;18.034;2024-01-30T09:29:21;102225.78;;;2.70;66.75
51715;BME280;39115;59.332;18.034;2024-01-30T09:31:45;102231.00;;;2.72;66.75
51715;BME280;39115;59.332;18.034;2024-01-30T09:34:06;102230.06;;;2.73;66.82
51715;BME280;39115;59.332;18.034;2024-01-30T09:36:26;102214.34;;;2.71;66.64
51715;BME280;39115;59.332;18.034;2024-01-30T09:38:47;102214.34;;;2.71;66.66
51715;BME280;39115;59.332;18.034;2024-01-30T09:41:09;102216.09;;;2.72;66.79
51715;BME280;39115;59.332;18.034;2024-01-30T09:43:33;102216.09;;;2.72;66.73
51715;BME280;39115;59.332;18.034;2024-01-30T09:45:55;102217.81;;;2.73;66.76
51715;BME280;39115;59.332;18.034;2024-01-30T09:48:16;102216.94;;;2.73;66.68
51715;BME280;39115;59.332;18.034;2024-01-30T09:50:37;102212.53;;;2.73;66.70
51715;BME280;39115;59.332;18.034;2024-01-30T09:52:59;102209.03;;;2.73;66.58
51715;BME280;39115;59.332;18.034;2024-01-30T09:55:19;102211.63;;;2.74;66.73
51715;BME280;39115;59.332;18.034;2024-01-30T09:57:41;102213.41;;;2.74;66.77
51715;BME280;39115;59.332;18.034;2024-01-30T10:00:05;102206.38;;;2.74;66.77
51715;BME280;39115;59.332;18.034;2024-01-30T10:02:31;102202.84;;;2.75;66.82
51715;BME280;39115;59.332;18.034;2024-01-30T10:04:52;102202.84;;;2.75;66.66
51715;BME280;39115;59.332;18.034;2024-01-30T10:07:12;102201.06;;;2.76;66.78
51715;BME280;39115;59.332;18.034;2024-01-30T10:09:34;102196.66;;;2.76;66.77
51715;BME280;39115;59.332;18.034;2024-01-30T10:11:54;102201.91;;;2.76;66.73
51715;BME280;39115;59.332;18.034;2024-01-30T10:14:15;102196.66;;;2.76;66.68
51715;BME280;39115;59.332;18.034;2024-01-30T10:16:36;102195.75;;;2.77;66.56
51715;BME280;39115;59.332;18.034;2024-01-30T10:18:57;102201.88;;;2.78;66.71
51715;BME280;39115;59.332;18.034;2024-01-30T10:21:17;102201.88;;;2.78;66.65
51715;BME280;39115;59.332;18.034;2024-01-30T10:23:38;102205.34;;;2.78;66.67
51715;BME280;39115;59.332;18.034;2024-01-30T10:25:59;102202.72;;;2.78;66.86
51715;BME280;39115;59.332;18.034;2024-01-30T10:28:19;102192.22;;;2.78;66.86
51715;BME280;39115;59.332;18.034;2024-01-30T10:30:40;102192.22;;;2.78;66.65
51715;BME280;39115;59.332;18.034;2024-01-30T10:33:01;102179.94;;;2.79;66.67
51715;BME280;39115;59.332;18.034;2024-01-30T10:35:22;102185.19;;;2.79;66.74
51715;BME280;39115;59.332;18.034;2024-01-30T10:37:43;102189.56;;;2.80;66.53
51715;BME280;39115;59.332;18.034;2024-01-30T10:40:04;102186.03;;;2.79;66.70
51715;BME280;39115;59.332;18.034;2024-01-30T10:42:31;102185.16;;;2.80;66.69
51715;BME280;39115;59.332;18.034;2024-01-30T10:45:12;102180.69;;;2.82;66.66
51715;BME280;39115;59.332;18.034;2024-01-30T10:47:34;102169.31;;;2.82;66.54
51715;BME280;39115;59.332;18.034;2024-01-30T10:49:56;102169.31;;;2.82;66.51
51715;BME280;39115;59.332;18.034;2024-01-30T10:52:17;102172.81;;;2.82;66.80
51715;BME280;39115;59.332;18.034;2024-01-30T10:54:40;102164.91;;;2.82;66.72
51715;BME280;39115;59.332;18.034;2024-01-30T10:57:00;102170.13;;;2.84;66.56
51715;BME280;39115;59.332;18.034;2024-01-30T10:59:25;102157.03;;;2.82;66.55
51715;BME280;39115;59.332;18.034;2024-01-30T11:01:46;102160.44;;;2.84;66.82
51715;BME280;39115;59.332;18.034;2024-01-30T11:04:07;102150.81;;;2.85;66.66
51715;BME280;39115;59.332;18.034;2024-01-30T11:06:28;102153.44;;;2.85;66.45
51715;BME280;39115;59.332;18.034;2024-01-30T11:09:04;102154.25;;;2.87;66.66
51715;BME280;39115;59.332;18.034;2024-01-30T11:11:28;102144.63;;;2.86;66.81
51715;BME280;39115;59.332;18.034;2024-01-30T11:13:49;102143.72;;;2.87;66.59
51715;BME280;39115;59.332;18.034;2024-01-30T11:16:11;102137.53;;;2.88;66.65
51715;BME280;39115;59.332;18.034;2024-01-30T11:18:32;102128.78;;;2.88;66.70
51715;BME280;39115;59.332;18.034;2024-01-30T11:20:56;102127.00;;;2.88;66.58
51715;BME280;39115;59.332;18.034;2024-01-30T11:23:16;102120.84;;;2.89;66.58
51715;BME280;39115;59.332;18.034;2024-01-30T11:25:37;102121.72;;;2.90;66.72
51715;BME280;39115;59.332;18.034;2024-01-30T11:27:57;102117.31;;;2.90;66.40
51715;BME280;39115;59.332;18.034;2024-01-30T11:30:31;102112.91;;;2.91;66.74
51715;BME280;39115;59.332;18.034;2024-01-30T11:33:04;102111.13;;;2.91;66.70
51715;BME280;39115;59.332;18.034;2024-01-30T11:35:25;102106.78;;;2.90;66.75
51715;BME280;39115;59.332;18.034;2024-01-30T11:37:47;102103.25;;;2.91;66.63
51715;BME280;39115;59.332;18.034;2024-01-30T11:40:10;102102.34;;;2.92;66.74
51715;BME280;39115;59.332;18.034;2024-01-30T11:42:30;102111.97;;;2.93;66.59
51715;BME280;39115;59.332;18.034;2024-01-30T11:44:52;102106.63;;;2.95;66.59
51715;BME280;39115;59.332;18.034;2024-01-30T11:47:13;102098.81;;;2.93;66.41
51715;BME280;39115;59.332;18.034;2024-01-30T11:49:34;102100.53;;;2.94;66.54
51715;BME280;39115;59.332;18.034;2024-01-30T11:51:55;102094.34;;;2.95;66.49
51715;BME280;39115;59.332;18.034;2024-01-30T11:54:15;102085.59;;;2.95;66.24
51715;BME280;39115;59.332;18.034;2024-01-30T11:56:37;102090.78;;;2.96;66.61
51715;BME280;39115;59.332;18.034;2024-01-30T11:58:58;102082.91;;;2.96;66.54
51715;BME280;39115;59.332;18.034;2024-01-30T12:01:20;102082.00;;;2.97;66.48
51715;BME280;39115;59.332;18.034;2024-01-30T12:03:41;102085.50;;;2.98;66.63
51715;BME280;39115;59.332;18.034;2024-01-30T12:06:02;102088.06;;;2.99;66.58
51715;BME280;39115;59.332;18.034;2024-01-30T12:08:23;102088.06;;;2.99;66.67
51715;BME280;39115;59.332;18.034;2024-01-30T12:10:44;102074.91;;;2.99;66.80
51715;BME280;39115;59.332;18.034;2024-01-30T12:13:04;102078.38;;;3.00;66.54
51715;BME280;39115;59.332;18.034;2024-01-30T12:15:25;102083.66;;;3.00;66.47
51715;BME280;39115;59.332;18.034;2024-01-30T12:17:45;102086.25;;;3.02;66.67